createdAt,value
2022-08-23T00:02:26.927Z,6.00
2022-08-23T00:05:09.319Z,5.60
2022-08-23T00:07:42.052Z,4.70
2022-08-23T00:10:12.643Z,5.03
2022-08-23T00:12:41.364Z,5.27
2022-08-23T00:15:12.720Z,5.67
2022-08-23T00:17:42.193Z,5.87
2022-08-23T00:20:13.955Z,7.03
2022-08-23T00:22:43.759Z,5.50
2022-08-23T00:25:13.761Z,6.40
2022-08-23T00:27:42.464Z,5.63
2022-08-23T00:30:12.756Z,7.07
2022-08-23T00:32:42.271Z,5.03
2022-08-23T00:35:12.704Z,6.40
2022-08-23T00:38:31.824Z,6.27
2022-08-23T00:40:51.029Z,5.77
2022-08-23T00:43:41.475Z,5.30
2022-08-23T00:46:35.353Z,5.37
2022-08-23T00:49:08.012Z,5.53
2022-08-23T00:51:52.088Z,5.13
2022-08-23T00:54:27.231Z,5.40
2022-08-23T00:56:57.561Z,5.73
2022-08-23T00:59:26.237Z,5.90
2022-08-23T01:01:54.781Z,5.83
2022-08-23T01:04:23.756Z,5.63
2022-08-23T01:06:58.315Z,5.97
2022-08-23T01:09:28.391Z,6.47
2022-08-23T01:12:04.514Z,5.67
2022-08-23T01:14:39.124Z,7.23
2022-08-23T01:17:11.809Z,7.00
2022-08-23T01:19:45.020Z,7.07
2022-08-23T01:22:20.858Z,6.30
2022-08-23T01:25:07.226Z,7.67
2022-08-23T01:27:40.538Z,6.77
2022-08-23T01:30:12.942Z,7.17
2022-08-23T01:32:46.361Z,7.27
2022-08-23T01:35:16.614Z,7.20
2022-08-23T01:37:46.177Z,7.37
2022-08-23T01:40:16.996Z,6.37
2022-08-23T01:42:47.192Z,6.33
2022-08-23T01:45:16.245Z,6.97
2022-08-23T01:47:46.062Z,6.00
2022-08-23T01:50:14.978Z,6.30
2022-08-23T01:52:47.124Z,5.80
2022-08-23T01:55:19.815Z,5.87
2022-08-23T01:57:53.436Z,7.00
2022-08-23T02:00:24.757Z,6.57
2022-08-23T02:02:53.308Z,7.03
2022-08-23T02:05:22.565Z,7.13
2022-08-23T02:07:51.188Z,6.53
2022-08-23T02:10:22.961Z,6.47
2022-08-23T02:12:52.180Z,6.57
2022-08-23T02:15:23.528Z,6.13
2022-08-23T02:17:53.018Z,6.73
2022-08-23T02:20:22.540Z,6.53
2022-08-23T02:22:51.356Z,6.27
2022-08-23T02:25:21.341Z,6.43
2022-08-23T02:27:49.828Z,6.60
2022-08-23T02:30:18.420Z,7.27
2022-08-23T02:32:46.929Z,7.27
2022-08-23T02:35:16.917Z,7.57
2022-08-23T02:37:45.373Z,7.93
2022-08-23T02:40:14.132Z,8.63
2022-08-23T02:42:44.284Z,7.43
2022-08-23T02:45:13.367Z,7.67
2022-08-23T02:47:47.996Z,7.67
2022-08-23T02:50:22.025Z,7.53
2022-08-23T02:52:50.837Z,6.93
2022-08-23T02:55:20.199Z,7.90
2022-08-23T02:57:50.056Z,7.60
2022-08-23T03:00:19.415Z,8.20
2022-08-23T03:02:48.096Z,7.53
2022-08-23T03:05:17.647Z,8.17
2022-08-23T03:07:46.594Z,8.27
2022-08-23T03:10:16.293Z,7.10
2022-08-23T03:12:52.892Z,7.23
2022-08-23T03:15:21.533Z,7.17
2022-08-23T03:17:50.267Z,6.63
2022-08-23T03:20:19.591Z,7.40
2022-08-23T03:22:51.664Z,6.80
2022-08-23T03:25:25.471Z,6.47
2022-08-23T03:28:17.759Z,6.17
2022-08-23T03:30:47.055Z,6.43
2022-08-23T03:33:15.946Z,7.27
2022-08-23T03:35:47.861Z,6.63
2022-08-23T03:38:17.500Z,7.30
2022-08-23T03:40:46.437Z,6.80
2022-08-23T03:43:15.675Z,7.90
2022-08-23T03:45:45.691Z,6.60
2022-08-23T03:48:14.689Z,6.57
2022-08-23T03:50:43.751Z,6.23
2022-08-23T03:53:13.059Z,6.13
2022-08-23T03:55:43.985Z,6.93
2022-08-23T03:58:17.031Z,6.93
2022-08-23T04:00:46.908Z,6.60
2022-08-23T04:03:16.076Z,6.77
2022-08-23T04:05:59.998Z,6.47
2022-08-23T04:08:33.375Z,6.17
2022-08-23T04:11:04.463Z,7.33
2022-08-23T04:13:33.988Z,6.40
2022-08-23T04:16:06.068Z,7.40
2022-08-23T04:18:36.568Z,6.43
2022-08-23T04:21:10.853Z,7.23
2022-08-23T04:23:40.603Z,6.50
2022-08-23T04:26:09.658Z,6.47
2022-08-23T04:28:38.969Z,6.97
2022-08-23T04:31:09.053Z,6.70
2022-08-23T04:33:40.242Z,6.80
2022-08-23T04:36:09.265Z,6.33
2022-08-23T04:38:38.710Z,6.90
2022-08-23T04:41:26.672Z,6.30
2022-08-23T04:43:57.251Z,6.80
2022-08-23T04:46:28.675Z,6.47
2022-08-23T04:49:00.734Z,6.73
2022-08-23T04:51:29.381Z,6.33
2022-08-23T04:53:58.060Z,6.10
2022-08-23T04:57:04.821Z,6.50
2022-08-23T04:59:35.655Z,6.60
2022-08-23T05:02:05.675Z,6.10
2022-08-23T05:04:34.483Z,6.50
2022-08-23T05:07:02.943Z,6.17
2022-08-23T05:09:31.718Z,6.30
2022-08-23T05:12:00.443Z,6.80
2022-08-23T05:14:29.957Z,6.47
2022-08-23T05:16:58.478Z,6.67
2022-08-23T05:19:29.162Z,6.43
2022-08-23T05:21:57.677Z,6.37
2022-08-23T05:24:42.200Z,6.77
2022-08-23T05:27:13.653Z,6.93
2022-08-23T05:29:42.243Z,6.80
2022-08-23T05:32:11.594Z,6.50
2022-08-23T05:34:42.073Z,5.93
2022-08-23T05:37:12.444Z,6.40
2022-08-23T05:39:42.446Z,5.43
2022-08-23T05:42:14.294Z,6.13
2022-08-23T05:44:43.757Z,5.87
2022-08-23T05:47:15.902Z,5.93
2022-08-23T05:50:04.754Z,5.87
2022-08-23T05:52:37.034Z,6.00
2022-08-23T05:55:06.458Z,6.07
2022-08-23T05:57:55.699Z,5.83
2022-08-23T06:00:25.591Z,7.70
2022-08-23T06:03:06.005Z,6.80
2022-08-23T06:05:40.236Z,6.73
2022-08-23T06:08:08.945Z,6.37
2022-08-23T06:10:42.141Z,6.33
2022-08-23T06:13:33.745Z,6.10
2022-08-23T06:16:03.128Z,7.77
2022-08-23T06:18:44.407Z,6.67
2022-08-23T06:21:41.160Z,7.77
2022-08-23T06:24:12.170Z,7.67
2022-08-23T06:26:49.361Z,6.83
2022-08-23T06:29:20.441Z,7.70
2022-08-23T06:31:54.102Z,8.27
2022-08-23T06:34:33.601Z,6.30
2022-08-23T06:37:24.356Z,7.57
2022-08-23T06:40:07.472Z,8.33
2022-08-23T06:42:48.470Z,7.43
2022-08-23T06:45:22.920Z,8.73
2022-08-23T06:48:02.787Z,8.00
2022-08-23T06:50:32.551Z,8.07
2022-08-23T06:53:22.008Z,8.27
2022-08-23T06:56:22.408Z,7.60
2022-08-23T06:59:06.486Z,8.10
2022-08-23T07:01:55.947Z,8.47
2022-08-23T07:04:40.382Z,8.57
2022-08-23T07:07:16.225Z,9.43
2022-08-23T07:09:46.148Z,9.03
2022-08-23T07:12:14.759Z,8.03
2022-08-23T07:14:44.869Z,9.33
2022-08-23T07:17:14.500Z,9.20
2022-08-23T07:19:44.028Z,8.73
2022-08-23T07:22:15.762Z,8.13
2022-08-23T07:24:45.912Z,8.43
2022-08-23T07:27:15.617Z,9.20
2022-08-23T07:29:52.280Z,8.47
2022-08-23T07:32:20.807Z,9.03
2022-08-23T07:34:50.107Z,8.03
2022-08-23T07:37:20.823Z,8.53
2022-08-23T07:39:50.623Z,9.00
2022-08-23T07:42:23.746Z,9.43
2022-08-23T07:44:55.163Z,8.73
2022-08-23T07:47:28.340Z,9.20
2022-08-23T07:49:58.291Z,8.37
2022-08-23T07:52:27.354Z,8.77
2022-08-23T07:54:57.649Z,9.00
2022-08-23T07:57:38.236Z,8.63
2022-08-23T08:00:14.271Z,9.73
2022-08-23T08:02:51.477Z,7.83
2022-08-23T08:05:26.807Z,7.20
2022-08-23T08:07:56.559Z,7.80
2022-08-23T08:10:26.923Z,7.83
2022-08-23T08:12:55.748Z,7.33
2022-08-23T08:15:25.847Z,7.13
2022-08-23T08:18:01.853Z,7.80
2022-08-23T08:20:52.451Z,6.30
2022-08-23T08:23:39.134Z,6.80
2022-08-23T08:26:27.583Z,7.20
2022-08-23T08:28:58.686Z,6.38
2022-08-23T08:31:28.200Z,7.15
2022-08-23T08:33:57.844Z,6.50
2022-08-23T08:36:33.640Z,7.07
2022-08-23T08:39:03.279Z,6.15
2022-08-23T08:41:58.580Z,5.93
2022-08-23T08:44:41.872Z,6.07
2022-08-23T08:47:16.573Z,5.45
2022-08-23T08:49:50.163Z,5.45
2022-08-23T08:52:22.849Z,4.80
2022-08-23T08:54:56.813Z,5.53
2022-08-23T08:57:27.841Z,5.38
2022-08-23T09:00:01.763Z,5.18
2022-08-23T09:02:35.585Z,4.97
2022-08-23T09:05:12.140Z,4.50
2022-08-23T09:07:50.792Z,4.80
2022-08-23T09:10:51.849Z,3.92
2022-08-23T09:14:05.385Z,4.50
2022-08-23T09:16:47.938Z,4.95
2022-08-23T09:19:17.556Z,4.93
2022-08-23T09:21:49.523Z,4.90
2022-08-23T09:24:18.408Z,4.80
2022-08-23T09:26:59.906Z,4.40
2022-08-23T09:29:33.109Z,5.28
2022-08-23T09:32:03.572Z,4.57
2022-08-23T09:34:42.736Z,5.18
2022-08-23T09:37:19.127Z,5.35
2022-08-23T09:39:50.677Z,4.60
2022-08-23T09:42:36.456Z,5.03
2022-08-23T09:45:24.888Z,4.65
2022-08-23T09:47:53.479Z,4.47
2022-08-23T09:50:27.597Z,4.88
2022-08-23T09:53:00.434Z,5.03
2022-08-23T09:55:33.775Z,4.53
2022-08-23T09:58:05.137Z,5.30
2022-08-23T10:00:37.305Z,3.90
2022-08-23T10:03:24.907Z,4.97
2022-08-23T10:06:00.722Z,4.30
2022-08-23T10:08:38.528Z,4.00
2022-08-23T10:11:18.779Z,4.25
2022-08-23T10:13:48.753Z,3.72
2022-08-23T10:16:30.438Z,4.00
2022-08-23T10:19:11.421Z,2.60
2022-08-23T10:21:45.099Z,2.58
2022-08-23T10:24:42.673Z,2.65
2022-08-23T10:27:59.309Z,2.83
2022-08-23T10:30:37.593Z,2.30
2022-08-23T10:33:14.331Z,1.95
2022-08-23T10:36:00.981Z,2.53
2022-08-23T10:38:42.210Z,3.03
2022-08-23T10:41:41.224Z,2.53
2022-08-23T10:44:25.482Z,1.70
2022-08-23T10:47:11.454Z,1.92
2022-08-23T10:49:43.128Z,2.38
2022-08-23T10:52:18.101Z,1.42
2022-08-23T10:54:59.746Z,1.98
2022-08-23T10:57:34.972Z,1.75
2022-08-23T11:00:07.548Z,1.95
2022-08-23T11:02:45.604Z,1.75
2022-08-23T11:05:28.896Z,1.67
2022-08-23T11:08:04.600Z,1.58
2022-08-23T11:10:55.657Z,2.17
2022-08-23T11:13:29.807Z,1.85
2022-08-23T11:16:00.722Z,1.75
2022-08-23T11:18:41.982Z,1.70
2022-08-23T11:21:44.640Z,1.58
2022-08-23T11:24:34.920Z,2.67
2022-08-23T11:27:07.866Z,2.35
2022-08-23T11:29:43.918Z,1.88
2022-08-23T11:32:37.873Z,2.28
2022-08-23T11:35:13.089Z,2.58
2022-08-23T11:38:03.972Z,1.80
2022-08-23T11:40:43.486Z,2.67
2022-08-23T11:43:24.676Z,1.90
2022-08-23T11:45:53.538Z,1.85
2022-08-23T11:48:36.854Z,2.45
2022-08-23T11:51:25.631Z,2.50
2022-08-23T11:54:30.356Z,2.70
2022-08-23T11:57:09.485Z,3.25
2022-08-23T12:00:10.632Z,2.45
2022-08-23T12:03:02.893Z,1.73
2022-08-23T12:06:04.195Z,2.28
2022-08-23T12:08:49.736Z,1.90
2022-08-23T12:11:20.748Z,1.60
2022-08-23T12:14:01.219Z,2.22
2022-08-23T12:16:38.650Z,1.75
2022-08-23T12:19:22.231Z,1.85
2022-08-23T12:21:57.382Z,1.83
2022-08-23T12:24:30.525Z,2.35
2022-08-23T12:27:11.064Z,2.03
2022-08-23T12:29:49.063Z,1.50
2022-08-23T12:32:22.656Z,1.75
2022-08-23T12:35:03.972Z,1.77
2022-08-23T12:37:41.671Z,1.67
2022-08-23T12:40:16.106Z,1.90
2022-08-23T12:42:46.911Z,1.60
2022-08-23T12:45:20.021Z,1.80
2022-08-23T12:47:57.457Z,1.55
2022-08-23T12:50:32.663Z,2.75
2022-08-23T12:53:05.740Z,1.20
2022-08-23T12:55:37.730Z,1.60
2022-08-23T12:58:09.152Z,1.40
2022-08-23T13:00:42.466Z,1.92
2022-08-23T13:03:17.311Z,1.50
2022-08-23T13:05:52.201Z,1.90
2022-08-23T13:08:31.600Z,1.52
2022-08-23T13:11:08.216Z,2.75
2022-08-23T13:13:41.471Z,1.35
2022-08-23T13:16:27.976Z,1.80
2022-08-23T13:19:11.031Z,1.30
2022-08-23T13:21:39.925Z,2.38
2022-08-23T13:24:36.589Z,1.27
2022-08-23T13:27:19.623Z,1.50
2022-08-23T13:29:57.776Z,1.67
2022-08-23T13:32:30.723Z,1.80
2022-08-23T13:35:24.145Z,1.73
2022-08-23T13:37:55.359Z,2.08
2022-08-23T13:40:26.724Z,1.40
2022-08-23T13:42:59.660Z,1.70
2022-08-23T13:45:32.553Z,1.50
2022-08-23T13:48:03.933Z,1.90
2022-08-23T13:50:34.659Z,1.80
2022-08-23T13:53:14.282Z,1.80
2022-08-23T13:55:47.115Z,1.45
2022-08-23T13:58:25.307Z,1.88
2022-08-23T14:00:58.535Z,1.80
2022-08-23T14:03:28.634Z,1.50
2022-08-23T14:05:57.220Z,0.80
2022-08-23T14:08:25.837Z,1.08
2022-08-23T14:10:54.320Z,1.25
2022-08-23T14:13:28.445Z,1.48
2022-08-23T14:21:41.788Z,1.33
2022-08-23T14:24:10.509Z,1.42
2022-08-23T14:26:39.067Z,1.05
2022-08-23T14:29:22.597Z,0.98
2022-08-23T14:31:53.130Z,1.40
2022-08-23T14:34:22.222Z,1.15
2022-08-23T14:39:40.065Z,1.42
2022-08-23T14:42:08.784Z,1.50
2022-08-23T14:44:37.240Z,1.25
2022-08-23T14:47:07.581Z,1.20
2022-08-23T14:49:36.165Z,1.17
2022-08-23T14:52:05.263Z,1.23
2022-08-23T14:54:34.295Z,1.00
2022-08-23T14:57:02.779Z,1.27
2022-08-23T14:59:31.304Z,2.00
2022-08-23T15:02:00.726Z,1.50
2022-08-23T15:04:34.180Z,1.38
2022-08-23T15:07:19.948Z,1.17
2022-08-23T15:09:49.003Z,1.27
2022-08-23T15:15:12.114Z,1.20
2022-08-23T15:17:46.812Z,1.00
2022-08-23T15:20:16.751Z,1.33
2022-08-23T15:22:55.731Z,1.23
2022-08-23T15:25:25.713Z,1.20
2022-08-23T15:27:54.245Z,1.20
2022-08-23T15:30:24.360Z,1.35
2022-08-23T15:32:56.746Z,1.23
2022-08-23T15:35:27.897Z,1.40
2022-08-23T15:37:58.315Z,1.35
2022-08-23T15:40:26.953Z,1.35
2022-08-23T15:42:55.551Z,1.50
2022-08-23T15:45:24.212Z,0.85
2022-08-23T15:47:55.384Z,1.20
2022-08-23T15:50:28.030Z,1.98
2022-08-23T15:52:56.868Z,1.30
2022-08-23T15:55:29.320Z,1.58
2022-08-23T15:57:58.641Z,1.13
2022-08-23T16:00:28.376Z,1.30
2022-08-23T16:03:18.541Z,1.70
2022-08-23T16:05:49.012Z,1.58
2022-08-23T16:08:22.152Z,1.20
2022-08-23T16:10:50.624Z,1.00
2022-08-23T16:13:19.448Z,2.17
2022-08-23T16:15:48.187Z,1.30
2022-08-23T16:18:16.707Z,1.38
2022-08-23T16:20:46.798Z,1.25
2022-08-23T16:23:15.294Z,1.33
2022-08-23T16:25:43.894Z,1.20
2022-08-23T16:28:12.395Z,3.15
2022-08-23T16:30:40.928Z,2.92
2022-08-23T16:33:09.365Z,1.40
2022-08-23T16:35:37.801Z,1.50
2022-08-23T16:38:07.600Z,1.80
2022-08-23T16:40:36.046Z,1.48
2022-08-23T16:43:04.681Z,1.25
2022-08-23T16:45:33.237Z,2.28
2022-08-23T16:48:01.753Z,1.67
2022-08-23T16:50:32.654Z,1.35
2022-08-23T16:53:06.433Z,1.08
2022-08-23T16:55:37.775Z,1.30
2022-08-23T16:58:07.661Z,1.13
2022-08-23T17:00:37.268Z,1.90
2022-08-23T17:03:06.999Z,1.48
2022-08-23T17:05:35.863Z,1.48
2022-08-23T17:08:05.081Z,1.67
2022-08-23T17:10:34.086Z,1.60
2022-08-23T17:13:05.208Z,1.73
2022-08-23T17:15:35.733Z,1.80
2022-08-23T17:18:04.852Z,1.20
2022-08-23T17:20:36.040Z,1.75
2022-08-23T17:23:05.867Z,1.88
2022-08-23T17:25:35.282Z,1.75
2022-08-23T17:28:06.555Z,2.30
2022-08-23T17:30:35.495Z,1.60
2022-08-23T17:33:04.111Z,1.92
2022-08-23T17:35:33.891Z,2.03
2022-08-23T17:38:03.144Z,1.88
2022-08-23T17:40:33.554Z,1.63
2022-08-23T17:43:03.148Z,2.10
2022-08-23T17:45:40.863Z,1.50
2022-08-23T17:48:09.484Z,1.70
2022-08-23T17:50:38.133Z,2.35
2022-08-23T17:53:07.222Z,1.65
2022-08-23T17:55:36.890Z,1.80
2022-08-23T17:58:06.223Z,1.60
2022-08-23T18:00:37.961Z,1.92
2022-08-23T18:03:06.779Z,2.00
2022-08-23T18:05:41.007Z,2.17
2022-08-23T18:08:09.839Z,1.90
2022-08-23T18:10:38.317Z,2.25
2022-08-23T18:13:06.982Z,1.85
2022-08-23T18:15:37.565Z,1.90
2022-08-23T18:18:06.098Z,2.53
2022-08-23T18:20:34.822Z,2.20
2022-08-23T18:23:03.971Z,2.17
2022-08-23T18:25:32.785Z,2.58
2022-08-23T18:28:09.897Z,2.95
2022-08-23T18:30:46.857Z,2.72
2022-08-23T18:33:16.484Z,3.03
2022-08-23T18:35:47.969Z,2.30
2022-08-23T18:38:16.720Z,2.53
2022-08-23T18:40:48.120Z,3.07
2022-08-23T18:43:19.040Z,3.20
2022-08-23T18:45:51.068Z,2.43
2022-08-23T18:48:19.715Z,2.40
2022-08-23T18:50:49.745Z,3.17
2022-08-23T18:53:20.082Z,2.77
2022-08-23T18:55:49.835Z,3.37
2022-08-23T18:58:19.016Z,3.00
2022-08-23T19:00:51.164Z,3.40
2022-08-23T19:03:20.412Z,3.03
2022-08-23T19:05:49.247Z,3.03
2022-08-23T19:08:19.307Z,2.87
2022-08-23T19:10:48.128Z,2.70
2022-08-23T19:13:16.746Z,3.07
2022-08-23T19:15:45.203Z,3.00
2022-08-23T19:18:16.011Z,3.20
2022-08-23T19:20:44.560Z,3.67
2022-08-23T19:23:13.525Z,3.27
2022-08-23T19:25:45.256Z,4.20
2022-08-23T19:28:14.519Z,3.90
2022-08-23T19:30:44.286Z,3.97
2022-08-23T19:33:14.234Z,5.13
2022-08-23T19:35:43.047Z,5.83
2022-08-23T19:38:14.254Z,6.73
2022-08-23T19:40:43.221Z,6.37
2022-08-23T19:43:11.851Z,5.70
2022-08-23T19:45:40.591Z,5.07
2022-08-23T19:48:09.940Z,5.67
2022-08-23T19:50:40.589Z,6.57
2022-08-23T19:53:09.875Z,6.30
2022-08-23T19:55:40.913Z,6.63
2022-08-23T19:58:10.028Z,5.77
2022-08-23T20:00:38.988Z,6.07
2022-08-23T20:03:07.735Z,6.60
2022-08-23T20:05:36.375Z,6.37
2022-08-23T20:08:07.108Z,6.87
2022-08-23T20:10:35.584Z,7.67
2022-08-23T20:13:04.337Z,6.77
2022-08-23T20:15:32.841Z,6.00
2022-08-23T20:18:01.451Z,5.90
2022-08-23T20:20:29.903Z,6.13
2022-08-23T20:23:15.859Z,5.57
2022-08-23T20:25:45.748Z,5.30
2022-08-23T20:28:14.161Z,6.37
2022-08-23T20:30:42.847Z,6.13
2022-08-23T20:33:11.273Z,6.30
2022-08-23T20:35:39.745Z,5.67
2022-08-23T20:38:08.225Z,5.90
2022-08-23T20:40:51.467Z,6.47
2022-08-23T20:43:22.534Z,6.10
2022-08-23T20:45:51.117Z,6.43
2022-08-23T20:48:19.744Z,6.03
2022-08-23T20:50:48.235Z,6.40
2022-08-23T20:53:16.812Z,6.43
2022-08-23T20:55:45.297Z,5.87
2022-08-23T20:58:15.086Z,5.40
2022-08-23T21:00:43.608Z,5.27
2022-08-23T21:03:12.052Z,6.73
2022-08-23T21:05:40.542Z,6.57
2022-08-23T21:08:13.057Z,6.20
2022-08-23T21:10:44.968Z,6.10
2022-08-23T21:13:15.293Z,5.87
2022-08-23T21:15:43.755Z,5.57
2022-08-23T21:18:12.204Z,5.53
2022-08-23T21:20:40.685Z,6.20
2022-08-23T21:23:09.593Z,5.83
2022-08-23T21:25:38.067Z,5.90
2022-08-23T21:28:06.508Z,5.50
2022-08-23T21:30:36.345Z,5.87
2022-08-23T21:33:07.426Z,6.10
2022-08-23T21:35:36.115Z,6.30
2022-08-23T21:38:05.043Z,6.40
2022-08-23T21:40:33.558Z,6.70
2022-08-23T21:43:02.207Z,7.03
2022-08-23T21:45:30.853Z,6.47
2022-08-23T21:48:01.262Z,6.60
2022-08-23T21:50:29.891Z,7.07
2022-08-23T21:52:58.716Z,6.20
2022-08-23T21:55:35.243Z,6.03
2022-08-23T21:58:05.444Z,7.03
2022-08-23T22:00:34.344Z,7.03
2022-08-23T22:03:05.377Z,6.60
2022-08-23T22:05:34.098Z,7.03
2022-08-23T22:08:02.541Z,6.63
2022-08-23T22:10:31.002Z,6.57
2022-08-23T22:13:00.563Z,5.77
2022-08-23T22:15:29.272Z,6.63
2022-08-23T22:17:57.703Z,6.07
2022-08-23T22:20:27.951Z,6.60
2022-08-23T22:22:56.478Z,6.60
2022-08-23T22:25:25.140Z,6.90
2022-08-23T22:27:53.981Z,6.07
2022-08-23T22:30:22.685Z,7.60
2022-08-23T22:32:51.177Z,7.33
2022-08-23T22:35:19.810Z,6.77
2022-08-23T22:38:12.148Z,7.37
2022-08-23T22:40:39.248Z,7.40
2022-08-23T22:43:07.979Z,7.87
2022-08-23T22:45:36.394Z,8.03
2022-08-23T22:48:05.171Z,7.83
2022-08-23T22:50:33.617Z,8.37
2022-08-23T22:53:03.440Z,8.57
2022-08-23T22:55:31.965Z,8.27
2022-08-23T22:58:00.425Z,8.30
2022-08-23T23:00:28.965Z,7.03
2022-08-23T23:02:59.971Z,7.20
2022-08-23T23:05:29.044Z,7.27
2022-08-23T23:08:26.632Z,7.43
2022-08-23T23:10:57.289Z,7.63
2022-08-23T23:13:27.563Z,7.43
2022-08-23T23:15:56.753Z,7.87
2022-08-23T23:18:26.878Z,7.20
2022-08-23T23:20:59.535Z,7.37
2022-08-23T23:23:29.240Z,7.60
2022-08-23T23:25:59.519Z,7.70
2022-08-23T23:28:28.897Z,7.83
2022-08-23T23:30:59.441Z,7.20
2022-08-23T23:33:28.376Z,8.30
2022-08-23T23:35:56.932Z,7.60
2022-08-23T23:38:25.348Z,8.47
2022-08-23T23:40:53.770Z,7.50
2022-08-23T23:43:23.635Z,7.63
2022-08-23T23:45:52.190Z,7.33
2022-08-23T23:48:20.984Z,7.83
2022-08-23T23:50:49.488Z,6.77
2022-08-23T23:53:17.995Z,7.70
2022-08-23T23:55:47.716Z,7.70
2022-08-23T23:58:16.227Z,7.53
